Time;durP1;ratioP1;P1;durP2;ratioP2;P2;SDS_P1;SDS_P2;PMS_P1;PMS_P2;Temp;Humidity;BMP_temperature;BMP_pressure;BME280_temperature;BME280_humidity;BME280_pressure;Samples;Min_cycle;Max_cycle;Signal;HPM_P1;HPM_P2
2023/02/27 00:02:16;;;;;;;6.60;3.22;;;;;-0.20;99038.00;;;;4938618;29;20039;-63
2023/02/27 00:04:43;;;;;;;10.18;4.03;;;;;-0.30;99027.00;;;;4956136;29;20079;-64
2023/02/27 00:07:09;;;;;;;7.53;3.55;;;;;-0.30;99035.00;;;;4923455;29;20058;-63
2023/02/27 00:09:37;;;;;;;8.55;3.45;;;;;-0.30;99025.00;;;;4956174;29;20102;-63
2023/02/27 00:12:03;;;;;;;7.80;3.65;;;;;-0.30;99032.00;;;;4955515;29;20051;-66
2023/02/27 00:14:30;;;;;;;8.68;3.63;;;;;-0.30;99028.00;;;;4938765;29;20047;-62
2023/02/27 00:16:56;;;;;;;8.27;3.83;;;;;-0.30;99027.00;;;;4956630;28;20501;-62
2023/02/27 00:19:23;;;;;;;5.15;3.35;;;;;-0.30;99023.00;;;;4956940;29;20058;-62
2023/02/27 00:21:49;;;;;;;6.60;3.03;;;;;-0.30;99027.00;;;;4955906;29;20050;-66
2023/02/27 00:24:16;;;;;;;8.05;3.75;;;;;-0.30;99035.00;;;;4955296;28;20049;-63
2023/02/27 00:26:43;;;;;;;8.02;3.55;;;;;-0.30;99030.00;;;;4938866;29;20065;-62
2023/02/27 00:29:09;;;;;;;6.10;3.22;;;;;-0.40;99025.00;;;;4939852;29;20117;-64
2023/02/27 00:31:36;;;;;;;6.45;3.47;;;;;-0.30;99020.00;;;;4958843;28;20059;-64
2023/02/27 00:34:03;;;;;;;6.25;3.38;;;;;-0.30;99014.00;;;;4958369;29;20039;-64
2023/02/27 00:36:29;;;;;;;5.65;3.10;;;;;-0.30;99013.00;;;;4941494;29;20054;-64
2023/02/27 00:38:56;;;;;;;6.55;3.78;;;;;-0.30;99012.00;;;;4956421;29;20452;-64
2023/02/27 00:41:24;;;;;;;4.68;2.90;;;;;-0.30;99018.00;;;;4941553;29;20051;-64
2023/02/27 00:43:51;;;;;;;7.10;3.30;;;;;-0.40;99018.00;;;;4942605;29;20051;-64
2023/02/27 00:46:18;;;;;;;5.43;3.28;;;;;-0.40;99019.00;;;;4950485;29;20055;-64
2023/02/27 00:48:45;;;;;;;3.88;2.47;;;;;-0.40;99014.00;;;;4952014;29;20047;-64
2023/02/27 00:51:11;;;;;;;6.78;3.20;;;;;-0.40;99022.00;;;;4941204;29;20051;-64
2023/02/27 00:53:38;;;;;;;5.30;3.20;;;;;-0.30;99017.00;;;;4956775;29;20039;-64
2023/02/27 00:56:05;;;;;;;5.18;3.08;;;;;-0.40;99023.00;;;;4957330;29;20053;-64
2023/02/27 00:58:31;;;;;;;6.53;3.30;;;;;-0.50;99016.00;;;;4949015;29;20054;-64
2023/02/27 01:00:59;;;;;;;5.88;3.17;;;;;-0.50;99017.00;;;;4945051;29;20047;-64
2023/02/27 01:03:27;;;;;;;5.22;3.22;;;;;-0.50;99018.00;;;;4962072;29;20051;-63
2023/02/27 01:05:54;;;;;;;5.70;3.05;;;;;-0.50;99029.00;;;;4947348;29;20047;-63
2023/02/27 01:08:20;;;;;;;5.93;3.40;;;;;-0.50;99033.00;;;;4945368;29;20102;-63
2023/02/27 01:10:47;;;;;;;6.30;3.33;;;;;-0.60;99014.00;;;;4958838;28;20066;-64
2023/02/27 01:13:13;;;;;;;6.35;2.92;;;;;-0.50;99022.00;;;;4940837;28;20043;-63
2023/02/27 01:15:40;;;;;;;6.80;3.20;;;;;-0.60;99014.00;;;;4925478;29;20054;-63
2023/02/27 01:18:07;;;;;;;4.75;2.55;;;;;-0.60;99011.00;;;;4942415;29;20051;-64
2023/02/27 01:20:34;;;;;;;7.53;3.50;;;;;-0.70;99010.00;;;;4941714;29;20500;-63
2023/02/27 01:23:00;;;;;;;6.28;3.20;;;;;-0.60;99017.00;;;;4940607;29;20048;-63
2023/02/27 01:25:27;;;;;;;5.35;3.40;;;;;-0.60;99018.00;;;;4925402;29;20063;-63
2023/02/27 01:27:54;;;;;;;6.82;3.15;;;;;-0.70;99023.00;;;;4924980;28;20051;-63
2023/02/27 01:30:20;;;;;;;7.20;2.85;;;;;-0.70;99023.00;;;;4960216;29;20090;-63
2023/02/27 01:32:47;;;;;;;8.55;3.05;;;;;-0.70;99009.00;;;;4940120;29;20097;-63
2023/02/27 01:35:13;;;;;;;4.90;2.83;;;;;-0.80;99015.00;;;;4926348;28;20105;-63
2023/02/27 01:37:40;;;;;;;5.50;2.90;;;;;-0.80;99013.00;;;;4930355;29;20050;-64
2023/02/27 01:40:07;;;;;;;3.42;2.40;;;;;-0.80;99003.00;;;;4931469;29;20055;-63
2023/02/27 01:42:34;;;;;;;4.30;2.50;;;;;-0.80;99009.00;;;;4965277;29;20050;-63
2023/02/27 01:45:10;;;;;;;4.82;2.53;;;;;-0.80;99008.00;;;;4947942;29;20058;-63
2023/02/27 01:47:47;;;;;;;6.20;2.80;;;;;-0.80;99013.00;;;;4963185;28;20130;-65
2023/02/27 01:50:15;;;;;;;6.35;2.70;;;;;-0.80;99013.00;;;;4944968;29;20389;-62
2023/02/27 01:52:44;;;;;;;3.75;2.70;;;;;-0.80;99012.00;;;;4925490;29;20067;-63
2023/02/27 01:55:12;;;;;;;4.65;2.40;;;;;-0.90;99006.00;;;;4944022;29;20044;-63
2023/02/27 01:57:41;;;;;;;2.72;1.90;;;;;-0.90;99003.00;;;;4925994;29;20470;-63
2023/02/27 02:00:09;;;;;;;4.25;2.40;;;;;-0.90;98999.00;;;;4942797;29;20055;-62
2023/02/27 02:02:43;;;;;;;4.55;2.05;;;;;-0.90;98998.00;;;;4960467;29;20057;-62
2023/02/27 02:05:13;;;;;;;8.30;2.38;;;;;-0.90;98999.00;;;;4943113;28;20566;-62
2023/02/27 02:07:42;;;;;;;3.10;2.33;;;;;-0.90;98998.00;;;;4942705;29;20106;-62
2023/02/27 02:10:11;;;;;;;2.03;1.83;;;;;-0.90;99007.00;;;;4927546;29;20047;-65
2023/02/27 02:12:39;;;;;;;3.28;2.00;;;;;-0.90;99006.00;;;;4943840;29;20098;-63
2023/02/27 02:15:08;;;;;;;4.07;1.92;;;;;-0.90;99005.00;;;;4945448;29;20126;-63
2023/02/27 02:18:05;;;;;;;5.88;2.30;;;;;-0.90;99002.00;;;;4947168;29;20061;-63
2023/02/27 02:20:57;;;;;;;6.47;2.30;;;;;-1.00;99012.00;;;;4950768;29;20043;-64
2023/02/27 02:24:05;;;;;;;2.88;2.00;;;;;-1.00;99007.00;;;;4932215;29;20072;-64
2023/02/27 02:26:43;;;;;;;3.67;1.90;;;;;-1.00;99001.00;;;;4909235;29;20052;-62
2023/02/27 02:29:39;;;;;;;2.97;1.92;;;;;-1.00;99004.00;;;;4961859;29;20065;-63
2023/02/27 02:32:06;;;;;;;2.85;1.67;;;;;-1.10;98998.00;;;;4931441;29;20053;-64
2023/02/27 02:34:48;;;;;;;2.80;2.08;;;;;-1.00;99000.00;;;;4948109;28;20146;-64
2023/02/27 02:37:35;;;;;;;3.88;1.98;;;;;-1.10;99001.00;;;;4944956;29;20114;-64
2023/02/27 02:40:07;;;;;;;4.05;1.83;;;;;-1.10;98999.00;;;;4940844;29;20043;-63
2023/02/27 02:42:42;;;;;;;3.38;1.90;;;;;-1.20;98999.00;;;;4923922;29;20047;-64
2023/02/27 02:45:15;;;;;;;5.00;2.38;;;;;-1.10;98995.00;;;;4940691;29;20051;-64
2023/02/27 02:48:10;;;;;;;4.22;2.25;;;;;-1.10;98987.00;;;;4956738;28;20047;-63
2023/02/27 02:50:40;;;;;;;;;;;;;-1.00;98996.00;;;;4957839;29;20047;-63
2023/02/27 02:53:21;;;;;;;2.20;1.50;;;;;-1.10;98981.00;;;;4940282;28;19928;-63
2023/02/27 02:56:03;;;;;;;3.38;2.20;;;;;-1.20;98983.00;;;;4929596;29;20071;-62
2023/02/27 02:58:37;;;;;;;5.28;2.03;;;;;-1.20;98983.00;;;;4942184;29;20102;-66
2023/02/27 03:01:13;;;;;;;5.40;1.80;;;;;-1.20;98985.00;;;;4940588;29;20051;-62
2023/02/27 03:03:46;;;;;;;3.00;1.95;;;;;-1.20;98988.00;;;;4939701;29;20049;-66
2023/02/27 03:06:21;;;;;;;5.50;2.33;;;;;-1.20;98991.00;;;;4923763;29;20052;-63
2023/02/27 03:08:53;;;;;;;2.40;2.00;;;;;-1.20;98998.00;;;;4939535;29;20062;-63
2023/02/27 03:11:23;;;;;;;5.10;2.05;;;;;-1.30;98990.00;;;;4923863;29;20162;-64
2023/02/27 03:13:54;;;;;;;3.38;1.90;;;;;-1.30;98995.00;;;;4923414;28;20058;-64
2023/02/27 03:16:33;;;;;;;2.83;1.92;;;;;-1.20;98992.00;;;;4939966;28;20058;-64
2023/02/27 03:19:11;;;;;;;4.32;1.80;;;;;-1.20;99001.00;;;;4941406;29;20055;-64
2023/02/27 03:21:52;;;;;;;4.25;2.00;;;;;-1.30;99005.00;;;;4926809;29;20063;-64
2023/02/27 03:24:26;;;;;;;2.80;1.70;;;;;-1.30;98992.00;;;;4927007;29;20061;-64
2023/02/27 03:26:58;;;;;;;4.57;2.42;;;;;-1.40;99000.00;;;;4926644;29;20058;-63
2023/02/27 03:29:34;;;;;;;5.10;1.95;;;;;-1.30;99007.00;;;;4924712;29;20559;-64
2023/02/27 03:32:08;;;;;;;3.00;1.95;;;;;-1.30;99002.00;;;;4922905;29;20051;-63
2023/02/27 03:34:37;;;;;;;5.80;2.13;;;;;-1.40;99009.00;;;;4938551;29;20047;-64
2023/02/27 03:37:21;;;;;;;4.55;1.70;;;;;-1.40;99021.00;;;;4923307;29;20163;-64
2023/02/27 03:39:58;;;;;;;3.03;1.80;;;;;-1.40;99017.00;;;;4938849;29;20048;-64
2023/02/27 03:42:37;;;;;;;3.00;1.60;;;;;-1.30;99013.00;;;;4938237;29;20456;-64
2023/02/27 03:45:43;;;;;;;3.97;1.85;;;;;-1.30;99016.00;;;;4939068;28;20110;-64
2023/02/27 03:48:12;;;;;;;6.40;2.10;;;;;-1.40;99021.00;;;;4923136;29;20124;-65
2023/02/27 03:50:38;;;;;;;5.60;2.20;;;;;-1.40;99025.00;;;;4922904;29;20051;-64
2023/02/27 03:53:18;;;;;;;2.42;1.60;;;;;-1.40;99020.00;;;;4923844;29;20164;-63
2023/02/27 03:55:46;;;;;;;3.47;1.67;;;;;-1.40;99017.00;;;;4923036;28;20054;-64
2023/02/27 03:58:13;;;;;;;4.22;1.70;;;;;-1.50;99026.00;;;;4938784;29;20070;-64
2023/02/27 04:00:40;;;;;;;5.80;1.95;;;;;-1.50;99026.00;;;;4923069;29;20059;-64
2023/02/27 04:03:07;;;;;;;3.75;1.67;;;;;-1.40;99022.00;;;;4938249;29;20505;-64
2023/02/27 04:05:34;;;;;;;2.70;1.35;;;;;-1.40;99020.00;;;;4922560;29;20047;-63
2023/02/27 04:08:31;;;;;;;6.85;2.10;;;;;-1.30;99017.00;;;;4922784;28;20043;-63
2023/02/27 04:11:08;;;;;;;;;;;;;-1.40;99035.00;;;;4922793;29;20055;-62
2023/02/27 04:14:02;;;;;;;10.15;1.70;;;;;-1.40;99038.00;;;;4937734;29;19922;-62
2023/02/27 04:16:38;;;;;;;6.65;3.58;;;;;-1.50;99031.00;;;;4955125;29;20044;-65
2023/02/27 04:19:20;;;;;;;2.90;1.58;;;;;-1.50;99037.00;;;;4937847;29;20492;-64
2023/02/27 04:22:05;;;;;;;5.00;1.95;;;;;-1.50;99036.00;;;;4954954;28;20047;-64
2023/02/27 04:24:56;;;;;;;1.83;1.30;;;;;-1.50;99042.00;;;;4937929;29;20043;-62
2023/02/27 04:27:26;;;;;;;2.88;1.70;;;;;-1.50;99038.00;;;;4937881;29;20070;-63
2023/02/27 04:30:09;;;;;;;4.30;1.40;;;;;-1.50;99042.00;;;;4921951;29;20058;-63
2023/02/27 04:32:48;;;;;;;2.42;1.63;;;;;-1.60;99054.00;;;;4937598;29;20043;-63
2023/02/27 04:35:33;;;;;;;3.05;1.48;;;;;-1.60;99053.00;;;;4937548;29;20047;-63
2023/02/27 04:38:11;;;;;;;2.08;1.33;;;;;-1.60;99055.00;;;;4937865;29;20050;-63
2023/02/27 04:40:51;;;;;;;2.83;1.40;;;;;-1.50;99055.00;;;;4937853;29;20448;-63
2023/02/27 04:43:22;;;;;;;4.82;1.55;;;;;-1.50;99061.00;;;;4937499;29;20047;-62
2023/02/27 04:45:50;;;;;;;4.80;2.33;;;;;-1.60;99065.00;;;;4937410;29;20059;-62
2023/02/27 04:48:35;;;;;;;3.70;1.88;;;;;-1.50;99072.00;;;;4938039;29;20047;-65
2023/02/27 04:51:08;;;;;;;1.98;1.33;;;;;-1.60;99061.00;;;;4937654;29;20104;-62
2023/02/27 04:53:46;;;;;;;3.60;1.77;;;;;-1.50;99061.00;;;;4960665;29;20047;-63
2023/02/27 04:56:22;;;;;;;3.70;1.60;;;;;-1.60;99054.00;;;;4929907;29;20054;-63
2023/02/27 04:58:52;;;;;;;2.83;1.75;;;;;-1.60;99071.00;;;;4937824;29;20047;-63
2023/02/27 05:01:31;;;;;;;1.85;1.60;;;;;-1.60;99073.00;;;;4922322;29;20066;-64
2023/02/27 05:03:57;;;;;;;2.30;1.60;;;;;-1.60;99072.00;;;;4937422;29;20051;-64
2023/02/27 05:06:31;;;;;;;3.00;1.75;;;;;-1.60;99068.00;;;;4921791;28;20055;-66
2023/02/27 05:09:07;;;;;;;2.22;1.30;;;;;-1.60;99072.00;;;;4937351;29;20051;-63
2023/02/27 05:12:19;;;;;;;2.08;1.48;;;;;-1.60;99082.00;;;;4936920;29;20054;-63
2023/02/27 05:14:55;;;;;;;7.45;2.35;;;;;-1.60;99075.00;;;;4948873;29;20093;-63
2023/02/27 05:17:47;;;;;;;3.25;1.60;;;;;-1.60;99082.00;;;;4956855;29;20055;-63
2023/02/27 05:20:14;;;;;;;2.90;1.77;;;;;-1.70;99085.00;;;;4936804;29;20110;-64
2023/02/27 05:22:48;;;;;;;3.50;1.70;;;;;-1.70;99083.00;;;;4936784;29;20050;-63
2023/02/27 05:25:26;;;;;;;3.28;1.60;;;;;-1.60;99070.00;;;;4936933;29;20469;-63
2023/02/27 05:28:03;;;;;;;6.30;2.00;;;;;-1.70;99067.00;;;;4954156;29;20057;-63
2023/02/27 05:30:42;;;;;;;2.83;1.83;;;;;-1.60;99067.00;;;;4958518;28;20051;-63
2023/02/27 05:33:13;;;;;;;1.42;1.20;;;;;-1.60;99073.00;;;;4948690;29;20043;-63
2023/02/27 05:35:53;;;;;;;3.08;1.50;;;;;-1.60;99066.00;;;;4944979;29;20043;-63
2023/02/27 05:38:26;;;;;;;5.40;1.75;;;;;-1.60;99072.00;;;;4937484;29;20043;-63
2023/02/27 05:41:15;;;;;;;3.40;1.35;;;;;-1.70;99071.00;;;;4937147;29;20055;-63
2023/02/27 05:44:02;;;;;;;4.03;1.90;;;;;-1.70;99078.00;;;;4941249;29;20047;-64
2023/02/27 05:46:34;;;;;;;1.92;1.52;;;;;-1.70;99070.00;;;;4948219;29;20051;-64
2023/02/27 05:49:06;;;;;;;2.13;1.25;;;;;-1.70;99079.00;;;;4948233;29;20043;-64
2023/02/27 05:51:35;;;;;;;3.75;1.42;;;;;-1.60;99080.00;;;;4965657;28;20055;-63
2023/02/27 05:54:09;;;;;;;2.40;1.48;;;;;-1.70;99079.00;;;;4946798;29;20419;-65
2023/02/27 05:56:38;;;;;;;2.28;1.50;;;;;-1.70;99082.00;;;;4964611;28;20052;-63
2023/02/27 05:59:18;;;;;;;2.95;1.75;;;;;-1.70;99080.00;;;;4947411;29;20082;-64
2023/02/27 06:01:44;;;;;;;2.05;1.60;;;;;-1.70;99090.00;;;;4946593;29;20053;-64
2023/02/27 06:04:12;;;;;;;3.33;1.60;;;;;-1.70;99085.00;;;;4963084;28;20049;-63
2023/02/27 06:06:40;;;;;;;3.13;1.95;;;;;-1.70;99091.00;;;;4963775;29;20415;-65
2023/02/27 06:09:08;;;;;;;2.92;1.60;;;;;-1.70;99090.00;;;;4941613;28;20123;-64
2023/02/27 06:11:34;;;;;;;2.80;1.58;;;;;-1.70;99094.00;;;;4941565;29;20043;-64
2023/02/27 06:14:02;;;;;;;2.15;1.55;;;;;-1.70;99092.00;;;;4942006;29;20047;-64
2023/02/27 06:16:28;;;;;;;3.83;1.70;;;;;-1.70;99097.00;;;;4926141;29;20134;-63
2023/02/27 06:18:55;;;;;;;5.45;2.00;;;;;-1.70;99093.00;;;;4959810;29;20047;-64
2023/02/27 06:21:22;;;;;;;4.93;2.25;;;;;-1.60;99113.00;;;;4959014;28;20559;-63
2023/02/27 06:23:49;;;;;;;2.45;1.50;;;;;-1.60;99098.00;;;;4958804;28;20055;-64
2023/02/27 06:26:15;;;;;;;3.47;1.75;;;;;-1.70;99111.00;;;;4959541;28;20055;-65
2023/02/27 06:28:42;;;;;;;4.78;2.33;;;;;-1.60;99113.00;;;;4942576;29;20051;-63
2023/02/27 06:31:09;;;;;;;4.72;1.58;;;;;-1.60;99114.00;;;;4931335;29;20061;-64
2023/02/27 06:33:36;;;;;;;8.23;2.38;;;;;-1.60;99121.00;;;;4963280;28;20051;-66
2023/02/27 06:36:03;;;;;;;6.13;1.70;;;;;-1.60;99119.00;;;;4962871;29;20043;-64
2023/02/27 06:38:30;;;;;;;2.50;1.55;;;;;-1.60;99115.00;;;;4963311;29;20492;-65
2023/02/27 06:40:57;;;;;;;2.33;1.77;;;;;-1.60;99124.00;;;;4962683;29;20035;-65
2023/02/27 06:43:24;;;;;;;3.38;1.52;;;;;-1.50;99121.00;;;;4962321;29;20047;-66
2023/02/27 06:45:53;;;;;;;2.53;1.45;;;;;-1.50;99131.00;;;;4945083;29;20055;-64
2023/02/27 06:48:21;;;;;;;2.70;1.45;;;;;-1.40;99135.00;;;;4945664;29;20051;-65
2023/02/27 06:50:55;;;;;;;5.22;1.80;;;;;-1.30;99128.00;;;;4963203;28;20070;-64
2023/02/27 06:53:22;;;;;;;;;;;;;-1.30;99141.00;;;;4966454;29;20051;-63
2023/02/27 06:55:48;;;;;;;2.70;1.50;;;;;-1.30;99156.00;;;;4965271;29;20438;-64
2023/02/27 06:58:16;;;;;;;5.40;2.20;;;;;-1.30;99151.00;;;;4964208;29;20043;-62
2023/02/27 07:00:42;;;;;;;2.05;1.50;;;;;-1.30;99148.00;;;;4966392;28;20047;-65
2023/02/27 07:03:09;;;;;;;4.20;2.40;;;;;-1.30;99161.00;;;;4965325;28;20256;-65
2023/02/27 07:05:36;;;;;;;5.47;2.30;;;;;-1.20;99145.00;;;;4948572;29;20121;-65
2023/02/27 07:08:03;;;;;;;3.50;1.95;;;;;-1.20;99150.00;;;;4949196;29;20063;-65
2023/02/27 07:10:30;;;;;;;4.20;2.03;;;;;-1.20;99147.00;;;;4949077;29;20043;-64
2023/02/27 07:12:56;;;;;;;3.00;1.80;;;;;-1.10;99157.00;;;;4965139;28;20047;-65
2023/02/27 07:15:23;;;;;;;3.28;2.10;;;;;-1.00;99148.00;;;;4949696;29;20069;-65
2023/02/27 07:17:50;;;;;;;5.30;2.25;;;;;-1.00;99156.00;;;;4965531;28;20047;-64
2023/02/27 07:20:16;;;;;;;2.88;1.63;;;;;-1.00;99158.00;;;;4965851;28;20047;-64
2023/02/27 07:22:43;;;;;;;2.92;1.52;;;;;-0.90;99154.00;;;;4966818;28;20130;-64
2023/02/27 07:25:10;;;;;;;3.35;1.60;;;;;-1.00;99159.00;;;;4967020;29;20058;-63
2023/02/27 07:27:37;;;;;;;3.05;1.83;;;;;-0.80;99172.00;;;;4967694;28;20075;-63
2023/02/27 07:30:04;;;;;;;3.90;1.52;;;;;-0.80;99162.00;;;;4968779;28;20047;-64
2023/02/27 07:32:31;;;;;;;10.10;1.90;;;;;-0.90;99158.00;;;;4966855;28;20124;-64
2023/02/27 07:34:57;;;;;;;1.58;1.25;;;;;-0.80;99165.00;;;;4968139;28;20043;-64
2023/02/27 07:37:24;;;;;;;6.28;1.92;;;;;-0.80;99176.00;;;;4969805;28;20524;-63
2023/02/27 07:39:53;;;;;;;4.82;1.95;;;;;-0.60;99159.00;;;;4941226;29;20051;-64
2023/02/27 07:42:20;;;;;;;7.93;2.05;;;;;-0.60;99166.00;;;;4956712;28;20056;-63
2023/02/27 07:44:47;;;;;;;1.75;1.50;;;;;-0.40;99167.00;;;;4955675;28;20092;-63
2023/02/27 07:47:13;;;;;;;2.42;1.33;;;;;-0.40;99158.00;;;;4938702;29;20419;-62
2023/02/27 07:49:40;;;;;;;1.63;1.30;;;;;-0.30;99174.00;;;;4939246;29;20043;-62
2023/02/27 07:52:07;;;;;;;2.83;1.52;;;;;-0.30;99163.00;;;;4955545;29;20492;-67
2023/02/27 07:54:36;;;;;;;5.53;1.50;;;;;-0.30;99153.00;;;;4958668;28;20058;-64
2023/02/27 07:57:03;;;;;;;1.45;1.15;;;;;-0.10;99161.00;;;;4961962;29;20043;-65
2023/02/27 07:59:30;;;;;;;4.72;1.42;;;;;-0.10;99165.00;;;;4966785;28;20524;-63
2023/02/27 08:01:57;;;;;;;3.30;1.77;;;;;-0.20;99151.00;;;;4968055;28;20047;-62
2023/02/27 08:04:24;;;;;;;2.25;1.45;;;;;0.00;99165.00;;;;4966508;28;20051;-63
2023/02/27 08:06:50;;;;;;;2.10;1.25;;;;;0.00;99171.00;;;;4966514;29;20047;-64
2023/02/27 08:09:17;;;;;;;2.22;1.48;;;;;0.20;99167.00;;;;4966491;28;20043;-63
2023/02/27 08:11:44;;;;;;;3.33;1.70;;;;;0.30;99168.00;;;;4966605;29;20049;-63
2023/02/27 08:14:14;;;;;;;3.92;1.83;;;;;0.40;99175.00;;;;4949482;28;20150;-64
2023/02/27 08:16:40;;;;;;;3.75;1.60;;;;;0.40;99166.00;;;;4964227;28;20101;-64
2023/02/27 08:19:07;;;;;;;2.42;1.50;;;;;0.50;99168.00;;;;4963971;28;20310;-64
2023/02/27 08:21:34;;;;;;;2.80;1.52;;;;;0.60;99179.00;;;;4963024;29;20450;-64
2023/02/27 08:24:00;;;;;;;4.15;1.73;;;;;0.70;99171.00;;;;4955358;28;20046;-65
2023/02/27 08:26:27;;;;;;;2.28;1.65;;;;;0.80;99172.00;;;;4955407;29;20126;-65
2023/02/27 08:28:54;;;;;;;3.33;1.65;;;;;0.90;99171.00;;;;4938302;29;20130;-64
2023/02/27 08:31:20;;;;;;;2.35;1.30;;;;;0.90;99177.00;;;;4962684;29;20039;-64
2023/02/27 08:33:47;;;;;;;6.53;1.52;;;;;1.00;99183.00;;;;4945529;29;20412;-66
2023/02/27 08:36:23;;;;;;;3.42;1.25;;;;;1.00;99188.00;;;;4964699;29;20054;-65
2023/02/27 08:38:50;;;;;;;2.08;1.48;;;;;1.10;99190.00;;;;4947005;29;20059;-65
2023/02/27 08:41:16;;;;;;;2.33;1.40;;;;;1.20;99192.00;;;;4947025;29;20043;-63
2023/02/27 08:43:43;;;;;;;4.03;2.05;;;;;1.20;99185.00;;;;4944638;29;20067;-64
2023/02/27 08:46:10;;;;;;;4.18;1.83;;;;;1.30;99190.00;;;;4956352;28;20406;-64
2023/02/27 08:48:36;;;;;;;3.03;1.60;;;;;1.40;99192.00;;;;4940050;29;20055;-63
2023/02/27 08:51:03;;;;;;;2.72;1.55;;;;;1.40;99196.00;;;;4941226;29;20047;-64
2023/02/27 08:53:29;;;;;;;2.78;1.70;;;;;1.50;99195.00;;;;4955397;29;20054;-64
2023/02/27 08:55:56;;;;;;;3.33;1.70;;;;;1.50;99202.00;;;;4960842;28;20046;-64
2023/02/27 08:58:23;;;;;;;3.08;1.77;;;;;1.70;99208.00;;;;4939504;29;20394;-63
2023/02/27 09:00:49;;;;;;;3.50;1.10;;;;;1.70;99202.00;;;;4922516;29;20485;-64
2023/02/27 09:03:16;;;;;;;2.88;1.20;;;;;1.80;99208.00;;;;4937618;29;20412;-66
2023/02/27 09:05:42;;;;;;;2.08;1.13;;;;;1.80;99211.00;;;;4955114;28;20284;-65
2023/02/27 09:08:09;;;;;;;5.32;1.75;;;;;1.90;99208.00;;;;4937955;28;20066;-63
2023/02/27 09:10:35;;;;;;;3.08;1.52;;;;;2.00;99215.00;;;;4954924;29;20058;-64
2023/02/27 09:13:02;;;;;;;2.08;1.58;;;;;1.90;99216.00;;;;4955982;29;20053;-65
2023/02/27 09:15:30;;;;;;;2.35;1.48;;;;;1.80;99199.00;;;;4955127;28;20504;-64
2023/02/27 09:18:01;;;;;;;3.88;1.50;;;;;1.90;99197.00;;;;4937856;29;20047;-63
2023/02/27 09:20:34;;;;;;;3.03;1.55;;;;;1.90;99212.00;;;;4955349;29;20047;-64
2023/02/27 09:23:02;;;;;;;3.28;1.85;;;;;2.00;99205.00;;;;4941077;28;20426;-64
2023/02/27 09:25:29;;;;;;;4.13;2.05;;;;;2.00;99215.00;;;;4943976;29;20047;-64
2023/02/27 09:27:56;;;;;;;2.42;1.35;;;;;2.10;99220.00;;;;4939399;29;20051;-64
2023/02/27 09:30:22;;;;;;;5.43;2.13;;;;;2.20;99219.00;;;;4956609;28;20047;-64
2023/02/27 09:32:49;;;;;;;4.72;1.40;;;;;2.30;99232.00;;;;4942339;29;20058;-65
2023/02/27 09:35:19;;;;;;;1.42;1.33;;;;;2.30;99221.00;;;;4960544;28;20409;-64
2023/02/27 09:37:47;;;;;;;3.13;1.67;;;;;2.30;99231.00;;;;4960159;28;20050;-65
2023/02/27 09:40:26;;;;;;;6.15;1.38;;;;;2.50;99230.00;;;;4941658;29;20055;-65
2023/02/27 09:42:56;;;;;;;3.03;1.77;;;;;2.50;99223.00;;;;4937051;29;20044;-65
2023/02/27 09:45:27;;;;;;;1.65;1.20;;;;;2.40;99235.00;;;;4939838;29;20047;-65
2023/02/27 09:48:22;;;;;;;4.40;1.42;;;;;2.50;99238.00;;;;4938723;29;20496;-64
2023/02/27 09:50:49;;;;;;;;;;;;;2.50;99242.00;;;;4938578;29;20579;-65
2023/02/27 09:53:41;;;;;;;3.20;1.70;;;;;2.50;99247.00;;;;4921046;29;19928;-64
2023/02/27 09:56:29;;;;;;;2.58;2.00;;;;;2.50;99245.00;;;;4932031;29;20054;-65
2023/02/27 09:59:03;;;;;;;1.88;1.65;;;;;2.50;99235.00;;;;4934072;29;20092;-63
2023/02/27 10:01:42;;;;;;;1.88;1.30;;;;;2.60;99245.00;;;;4936925;29;20054;-63
2023/02/27 10:04:23;;;;;;;2.10;1.35;;;;;2.60;99251.00;;;;4938347;29;20043;-62
2023/02/27 10:07:06;;;;;;;3.35;1.60;;;;;2.70;99257.00;;;;4936367;29;20580;-64
2023/02/27 10:10:00;;;;;;;3.20;1.30;;;;;2.80;99258.00;;;;4934280;29;20047;-64
2023/02/27 10:12:59;;;;;;;3.42;1.77;;;;;2.80;99256.00;;;;4935443;29;20047;-62
2023/02/27 10:15:29;;;;;;;2.80;1.40;;;;;2.80;99260.00;;;;4868460;29;20550;-64
2023/02/27 10:18:02;;;;;;;2.80;1.70;;;;;2.80;99259.00;;;;4937455;29;20048;-64
2023/02/27 10:20:54;;;;;;;1.38;1.20;;;;;2.90;99255.00;;;;4933979;29;20131;-64
2023/02/27 10:23:35;;;;;;;3.17;1.50;;;;;2.90;99270.00;;;;4935556;29;20047;-65
2023/02/27 10:26:01;;;;;;;2.47;1.30;;;;;2.90;99265.00;;;;4918855;29;20051;-64
2023/02/27 10:28:28;;;;;;;2.30;1.73;;;;;3.00;99276.00;;;;4918356;29;20052;-63
2023/02/27 10:30:58;;;;;;;7.22;2.85;;;;;3.10;99270.00;;;;4918589;29;20531;-62
2023/02/27 10:33:30;;;;;;;4.20;1.98;;;;;3.20;99275.00;;;;4935091;29;20122;-64
2023/02/27 10:35:56;;;;;;;3.08;1.80;;;;;3.10;99265.00;;;;4936019;29;20051;-65
2023/02/27 10:38:28;;;;;;;2.35;1.73;;;;;3.30;99275.00;;;;4935702;29;20082;-65
2023/02/27 10:40:56;;;;;;;2.33;1.90;;;;;3.20;99267.00;;;;4935544;29;20045;-65
2023/02/27 10:43:23;;;;;;;2.00;1.60;;;;;3.40;99275.00;;;;4918791;29;20078;-65
2023/02/27 10:45:50;;;;;;;3.35;2.42;;;;;3.40;99285.00;;;;4938581;29;20536;-64
2023/02/27 10:48:19;;;;;;;2.38;1.65;;;;;3.40;99286.00;;;;4919916;29;20047;-65
2023/02/27 10:50:50;;;;;;;2.45;1.80;;;;;3.40;99294.00;;;;4919350;29;20051;-65
2023/02/27 10:53:24;;;;;;;3.53;1.67;;;;;3.50;99288.00;;;;4917735;29;20040;-64
2023/02/27 10:56:06;;;;;;;1.67;1.50;;;;;3.70;99309.00;;;;4936559;29;20485;-65
2023/02/27 10:58:36;;;;;;;4.53;1.92;;;;;3.70;99288.00;;;;4939329;29;20039;-64
2023/02/27 11:01:06;;;;;;;4.10;1.70;;;;;3.70;99289.00;;;;4938120;29;20051;-64
2023/02/27 11:03:38;;;;;;;6.40;2.25;;;;;3.70;99285.00;;;;4934385;29;20519;-64
2023/02/27 11:06:23;;;;;;;2.22;1.70;;;;;3.90;99280.00;;;;4936119;29;20071;-65
2023/02/27 11:09:18;;;;;;;2.85;1.65;;;;;4.00;99292.00;;;;4932181;29;20066;-64
2023/02/27 11:11:44;;;;;;;3.40;2.35;;;;;4.10;99289.00;;;;4937041;29;20067;-64
2023/02/27 11:14:32;;;;;;;3.47;2.15;;;;;4.10;99291.00;;;;4946681;29;20040;-65
2023/02/27 11:17:00;;;;;;;2.13;1.70;;;;;4.20;99284.00;;;;4935392;29;20052;-64
2023/02/27 11:19:30;;;;;;;3.03;1.60;;;;;4.20;99282.00;;;;4938103;29;20031;-65
2023/02/27 11:22:14;;;;;;;2.60;1.63;;;;;4.30;99288.00;;;;4938419;29;20126;-63
2023/02/27 11:24:41;;;;;;;2.13;1.67;;;;;4.30;99275.00;;;;4939126;29;20122;-64
2023/02/27 11:27:27;;;;;;;2.45;1.83;;;;;4.50;99284.00;;;;4919112;29;20048;-64
2023/02/27 11:30:23;;;;;;;2.22;1.70;;;;;4.60;99278.00;;;;4917782;29;20055;-63
2023/02/27 11:32:52;;;;;;;2.97;1.92;;;;;4.50;99278.00;;;;4933887;29;20592;-65
2023/02/27 11:35:31;;;;;;;4.03;2.17;;;;;4.10;99288.00;;;;4936656;29;20043;-64
2023/02/27 11:38:14;;;;;;;8.63;1.70;;;;;4.20;99291.00;;;;4940120;29;20043;-63
2023/02/27 11:40:49;;;;;;;2.67;1.60;;;;;4.00;99269.00;;;;4940437;29;20044;-64
2023/02/27 11:43:20;;;;;;;3.72;1.83;;;;;3.90;99271.00;;;;4940269;29;20082;-64
2023/02/27 11:45:58;;;;;;;2.42;1.90;;;;;3.80;99273.00;;;;4941014;29;20039;-62
2023/02/27 11:49:00;;;;;;;2.67;2.22;;;;;3.90;99262.00;;;;4939739;29;20140;-64
2023/02/27 11:51:58;;;;;;;5.60;2.00;;;;;3.90;99262.00;;;;4940270;29;20040;-64
2023/02/27 11:54:37;;;;;;;2.30;2.08;;;;;3.90;99252.00;;;;4939645;29;20054;-63
2023/02/27 11:57:17;;;;;;;2.25;1.77;;;;;4.10;99249.00;;;;4923260;29;20107;-63
2023/02/27 11:59:50;;;;;;;2.53;1.65;;;;;4.30;99247.00;;;;4939189;29;20043;-63
2023/02/27 12:02:41;;;;;;;3.40;2.03;;;;;4.20;99252.00;;;;4922864;29;20051;-63
2023/02/27 12:05:10;;;;;;;2.83;1.90;;;;;4.30;99257.00;;;;4924617;29;20039;-63
2023/02/27 12:07:51;;;;;;;2.38;1.88;;;;;4.40;99242.00;;;;4924640;29;20050;-63
2023/02/27 12:10:23;;;;;;;2.35;1.83;;;;;4.40;99248.00;;;;4941175;29;20043;-64
2023/02/27 12:12:59;;;;;;;2.53;1.83;;;;;4.40;99251.00;;;;4941016;29;20083;-64
2023/02/27 12:15:49;;;;;;;3.63;1.83;;;;;4.60;99262.00;;;;4936875;29;20047;-63
2023/02/27 12:18:30;;;;;;;2.03;1.83;;;;;4.30;99257.00;;;;4923829;29;20051;-64
2023/02/27 12:21:06;;;;;;;3.15;1.80;;;;;4.20;99234.00;;;;4921313;29;20047;-64
2023/02/27 12:23:40;;;;;;;2.45;1.42;;;;;4.40;99244.00;;;;4923874;29;20047;-64
2023/02/27 12:26:21;;;;;;;3.97;1.70;;;;;4.60;99246.00;;;;4920580;29;20051;-64
2023/02/27 12:28:58;;;;;;;4.07;1.70;;;;;4.50;99242.00;;;;4923154;29;20052;-64
2023/02/27 12:31:39;;;;;;;2.40;1.65;;;;;4.40;99241.00;;;;4936838;29;20047;-63
2023/02/27 12:34:28;;;;;;;3.38;1.50;;;;;4.60;99235.00;;;;4921269;29;20040;-63
2023/02/27 12:37:03;;;;;;;2.15;1.40;;;;;4.70;99245.00;;;;4938288;29;20133;-64
2023/02/27 12:39:31;;;;;;;3.15;1.60;;;;;4.60;99234.00;;;;4921044;29;20481;-65
2023/02/27 12:42:31;;;;;;;3.30;1.60;;;;;4.50;99238.00;;;;4937373;29;20047;-64
2023/02/27 12:44:57;;;;;;;1.70;1.60;;;;;4.40;99238.00;;;;4936851;29;20063;-65
2023/02/27 12:47:50;;;;;;;2.65;1.70;;;;;4.20;99224.00;;;;4937652;29;20035;-63
2023/02/27 12:50:19;;;;;;;3.67;2.00;;;;;4.20;99242.00;;;;4938694;29;20039;-64